createdAt,value
2018-04-29T00:01:52.438Z,16.90
2018-04-29T00:06:54.937Z,17.00
2018-04-29T00:11:57.419Z,17.00
2018-04-29T00:16:59.907Z,17.00
2018-04-29T00:22:02.383Z,16.90
2018-04-29T00:27:04.988Z,16.90
2018-04-29T00:32:08.256Z,17.00
2018-04-29T00:37:11.530Z,17.00
2018-04-29T00:42:14.029Z,17.10
2018-04-29T00:47:16.510Z,16.90
2018-04-29T00:52:18.987Z,17.00
2018-04-29T00:57:21.479Z,17.20
2018-04-29T01:02:24.099Z,17.10
2018-04-29T01:07:26.587Z,16.90
2018-04-29T01:12:29.071Z,16.70
2018-04-29T01:17:31.562Z,16.80
2018-04-29T01:22:34.045Z,16.60
2018-04-29T01:27:36.541Z,16.70
2018-04-29T01:32:39.059Z,16.90
2018-04-29T01:37:41.542Z,16.90
2018-04-29T01:42:44.012Z,16.50
2018-04-29T01:47:47.251Z,16.60
2018-04-29T01:52:50.050Z,16.80
2018-04-29T01:57:52.556Z,16.30
2018-04-29T02:02:55.052Z,16.50
2018-04-29T02:07:58.291Z,16.40
2018-04-29T02:13:00.788Z,16.30
2018-04-29T02:18:03.356Z,16.40
2018-04-29T02:23:05.835Z,16.30
2018-04-29T02:28:08.328Z,16.30
2018-04-29T02:33:10.825Z,16.50
2018-04-29T02:38:13.319Z,16.50
2018-04-29T02:43:15.814Z,16.30
2018-04-29T02:48:18.310Z,16.10
2018-04-29T02:53:20.782Z,16.20
2018-04-29T02:58:23.260Z,16.30
2018-04-29T03:03:25.767Z,16.00
2018-04-29T03:08:28.244Z,16.20
2018-04-29T03:13:30.736Z,16.00
2018-04-29T03:18:33.223Z,16.00
2018-04-29T03:23:35.711Z,16.30
2018-04-29T03:28:38.959Z,16.20
2018-04-29T03:33:41.444Z,15.90
2018-04-29T03:38:43.935Z,16.10
2018-04-29T03:43:46.445Z,15.80
2018-04-29T03:48:48.941Z,15.90
2018-04-29T03:53:51.428Z,15.80
2018-04-29T03:59:05.895Z,15.80
2018-04-29T04:04:08.392Z,15.80
2018-04-29T04:09:10.867Z,15.70
2018-04-29T04:14:13.343Z,15.70
2018-04-29T04:19:15.832Z,15.60
2018-04-29T04:24:18.310Z,15.60
2018-04-29T04:29:21.583Z,15.90
2018-04-29T04:34:24.060Z,15.90
2018-04-29T04:39:26.552Z,15.80
2018-04-29T04:44:29.240Z,15.40
2018-04-29T04:49:31.716Z,15.70
2018-04-29T04:54:34.192Z,15.70
2018-04-29T04:59:37.472Z,15.70
2018-04-29T05:04:39.959Z,15.70
2018-04-29T05:09:42.440Z,15.40
2018-04-29T05:14:45.691Z,15.20
2018-04-29T05:19:48.942Z,15.80
2018-04-29T05:24:51.436Z,15.70
2018-04-29T05:29:53.912Z,15.30
2018-04-29T05:34:56.415Z,15.80
2018-04-29T05:39:58.901Z,15.90
2018-04-29T05:45:01.391Z,15.60
2018-04-29T05:50:03.888Z,15.70
2018-04-29T05:55:06.403Z,15.70
2018-04-29T06:00:09.739Z,15.60
2018-04-29T06:05:12.217Z,15.60
2018-04-29T06:10:14.718Z,15.60
2018-04-29T06:15:17.220Z,15.40
2018-04-29T06:20:19.711Z,15.60
2018-04-29T06:25:22.202Z,15.70
2018-04-29T06:30:24.672Z,15.80
2018-04-29T06:35:27.187Z,15.90
2018-04-29T06:40:29.676Z,15.80
2018-04-29T06:45:32.168Z,15.80
2018-04-29T06:50:34.659Z,15.90
2018-04-29T06:55:37.152Z,16.10
2018-04-29T07:00:39.652Z,15.80
2018-04-29T07:05:42.144Z,16.10
2018-04-29T07:10:44.644Z,16.20
2018-04-29T07:15:47.119Z,15.90
2018-04-29T07:20:49.615Z,16.20
2018-04-29T07:25:52.104Z,16.50
2018-04-29T07:30:54.596Z,16.40
2018-04-29T07:35:57.092Z,16.50
2018-04-29T07:41:01.674Z,16.40
2018-04-29T07:46:04.724Z,16.60
2018-04-29T07:51:07.220Z,17.00
2018-04-29T07:56:09.716Z,16.90
2018-04-29T08:01:12.207Z,16.80
2018-04-29T08:06:14.692Z,16.80
2018-04-29T08:11:17.183Z,16.90
2018-04-29T08:16:19.701Z,17.00
2018-04-29T08:21:22.181Z,17.00
2018-04-29T08:26:24.678Z,17.00
2018-04-29T08:31:27.164Z,17.00
2018-04-29T08:36:29.660Z,16.90
2018-04-29T08:41:32.152Z,16.80
2018-04-29T08:46:34.652Z,17.20
2018-04-29T08:51:37.160Z,17.00
2018-04-29T08:56:39.648Z,17.10
2018-04-29T09:01:42.207Z,17.10
2018-04-29T09:06:45.438Z,17.40
2018-04-29T09:11:47.931Z,17.30
2018-04-29T09:16:50.478Z,17.30
2018-04-29T09:21:52.892Z,17.50
2018-04-29T09:26:55.379Z,17.40
2018-04-29T09:31:57.882Z,17.40
2018-04-29T09:37:00.403Z,17.40
2018-04-29T09:42:03.088Z,17.30
2018-04-29T09:47:05.783Z,17.60
2018-04-29T09:52:08.280Z,17.80
2018-04-29T09:57:10.800Z,17.90
2018-04-29T10:02:13.281Z,17.80
2018-04-29T10:07:15.763Z,17.70
2018-04-29T10:12:18.248Z,17.90
2018-04-29T10:17:20.744Z,17.90
2018-04-29T10:22:23.240Z,17.80
2018-04-29T10:27:25.723Z,17.70
2018-04-29T10:32:28.285Z,18.30
2018-04-29T10:37:30.708Z,18.00
2018-04-29T10:42:33.220Z,18.10
2018-04-29T10:47:36.476Z,18.40
2018-04-29T10:52:38.960Z,18.00
2018-04-29T10:57:41.458Z,18.10
2018-04-29T11:02:43.952Z,18.30
2018-04-29T11:07:46.449Z,18.50
2018-04-29T11:12:48.920Z,18.20
2018-04-29T11:17:51.405Z,18.10
2018-04-29T11:22:53.876Z,18.50
2018-04-29T11:27:56.392Z,18.60
2018-04-29T11:32:58.895Z,18.40
2018-04-29T11:38:01.383Z,18.30
2018-04-29T11:43:05.676Z,18.40
2018-04-29T11:48:08.195Z,18.50
2018-04-29T11:53:10.684Z,18.80
2018-04-29T11:58:13.179Z,18.70
2018-04-29T12:03:15.668Z,18.60
2018-04-29T12:08:18.187Z,18.80
2018-04-29T12:13:20.683Z,19.00
2018-04-29T12:18:23.244Z,18.80
2018-04-29T12:23:25.754Z,19.00
2018-04-29T12:28:29.005Z,19.30
2018-04-29T12:33:32.330Z,19.10
2018-04-29T12:38:34.764Z,19.20
2018-04-29T12:43:37.280Z,19.20
2018-04-29T12:48:39.780Z,19.30
2018-04-29T12:53:42.278Z,19.30
2018-04-29T12:58:45.532Z,19.30
2018-04-29T13:03:48.025Z,19.40
2018-04-29T13:08:50.520Z,19.40
2018-04-29T13:13:53.011Z,19.60
2018-04-29T13:18:55.508Z,19.80
2018-04-29T13:23:58.012Z,19.80
2018-04-29T13:29:00.505Z,19.60
2018-04-29T13:34:02.984Z,19.90
2018-04-29T13:39:06.420Z,19.40
2018-04-29T13:44:08.904Z,19.60
2018-04-29T13:49:11.384Z,19.70
2018-04-29T13:54:13.871Z,19.60
2018-04-29T13:59:16.391Z,19.70
2018-04-29T14:04:18.855Z,19.70
2018-04-29T14:09:21.351Z,19.70
2018-04-29T14:14:23.828Z,19.80
2018-04-29T14:19:26.307Z,19.90
2018-04-29T14:24:28.812Z,19.90
2018-04-29T14:29:31.320Z,19.70
2018-04-29T14:34:33.812Z,19.80
2018-04-29T14:39:36.293Z,19.50
2018-04-29T14:44:38.814Z,19.80
2018-04-29T14:49:41.300Z,20.00
2018-04-29T14:54:43.785Z,19.90
2018-04-29T14:59:46.280Z,19.70
2018-04-29T15:04:48.768Z,19.50
2018-04-29T15:09:51.273Z,19.60
2018-04-29T15:14:53.780Z,19.70
2018-04-29T15:19:56.260Z,19.60
2018-04-29T15:24:58.748Z,19.90
2018-04-29T15:30:01.276Z,20.00
2018-04-29T15:35:03.761Z,20.00
2018-04-29T15:40:06.244Z,20.20
2018-04-29T15:45:08.735Z,19.80
2018-04-29T15:50:11.227Z,19.90
2018-04-29T15:55:13.761Z,20.00
2018-04-29T16:00:17.008Z,20.00
2018-04-29T16:05:19.504Z,20.10
2018-04-29T16:10:22.015Z,19.90
2018-04-29T16:15:24.519Z,19.90
2018-04-29T16:20:27.012Z,19.70
2018-04-29T16:25:29.496Z,19.70
2018-04-29T16:30:32.384Z,19.90
2018-04-29T16:35:34.871Z,20.00
2018-04-29T16:40:37.368Z,19.80
2018-04-29T16:45:41.284Z,20.00
2018-04-29T16:50:43.783Z,20.10
2018-04-29T16:55:46.300Z,19.80
2018-04-29T17:00:48.788Z,19.90
2018-04-29T17:05:51.284Z,20.00
2018-04-29T17:10:54.777Z,20.00
2018-04-29T17:15:57.272Z,20.20
2018-04-29T17:20:59.771Z,20.20
2018-04-29T17:26:02.272Z,19.70
2018-04-29T17:31:04.765Z,20.00
2018-04-29T17:36:07.266Z,20.00
2018-04-29T17:41:09.762Z,20.00
2018-04-29T17:46:12.272Z,20.10
2018-04-29T17:51:14.772Z,19.80
2018-04-29T17:56:18.027Z,19.80
2018-04-29T18:01:20.601Z,20.00
2018-04-29T18:06:23.012Z,20.00
2018-04-29T18:11:25.509Z,19.80
2018-04-29T18:16:27.992Z,20.20
2018-04-29T18:21:30.483Z,19.90
2018-04-29T18:26:32.996Z,19.90
2018-04-29T18:31:35.492Z,20.10
2018-04-29T18:36:37.972Z,19.80
2018-04-29T18:41:40.468Z,20.00
2018-04-29T18:46:42.987Z,19.80
2018-04-29T18:51:45.519Z,19.70
2018-04-29T18:56:47.963Z,19.70
2018-04-29T19:01:51.220Z,19.80
2018-04-29T19:06:53.784Z,19.70
2018-04-29T19:11:56.268Z,19.80
2018-04-29T19:16:58.765Z,19.50
2018-04-29T19:22:01.277Z,19.30
2018-04-29T19:27:04.536Z,19.70
2018-04-29T19:32:07.024Z,19.60
2018-04-29T19:37:09.519Z,19.30
2018-04-29T19:42:12.004Z,19.30
2018-04-29T19:47:14.504Z,19.40
2018-04-29T19:52:16.992Z,19.30
2018-04-29T19:57:19.486Z,19.20
2018-04-29T20:02:21.988Z,19.40
2018-04-29T20:07:24.476Z,19.10
2018-04-29T20:12:26.972Z,19.20
2018-04-29T20:17:29.460Z,18.90
2018-04-29T20:22:31.948Z,19.20
2018-04-29T20:27:34.446Z,19.00
2018-04-29T20:32:54.748Z,18.70
2018-04-29T20:37:57.317Z,18.80
2018-04-29T20:42:59.731Z,18.90
2018-04-29T20:48:02.236Z,18.70
2018-04-29T20:53:04.719Z,18.80
2018-04-29T20:58:07.216Z,18.70
2018-04-29T21:03:09.703Z,18.80
2018-04-29T21:08:12.200Z,18.60
2018-04-29T21:13:14.695Z,18.80
2018-04-29T21:18:17.192Z,18.30
2018-04-29T21:23:19.681Z,18.50
2018-04-29T21:28:22.164Z,18.50
2018-04-29T21:33:24.663Z,18.60
2018-04-29T21:38:27.156Z,18.70
2018-04-29T21:43:29.643Z,18.60
2018-04-29T21:48:32.140Z,18.70
2018-04-29T21:53:34.643Z,18.50
2018-04-29T21:58:37.128Z,18.30
2018-04-29T22:03:39.644Z,18.30
2018-04-29T22:08:42.135Z,18.60
2018-04-29T22:13:44.707Z,18.20
2018-04-29T22:18:47.189Z,18.40
2018-04-29T22:23:49.668Z,18.20
2018-04-29T22:28:52.164Z,18.30
2018-04-29T22:33:54.676Z,18.20
2018-04-29T22:38:57.172Z,18.20
2018-04-29T22:44:00.240Z,18.30
2018-04-29T22:49:04.048Z,18.40
2018-04-29T22:54:07.303Z,18.10
2018-04-29T22:59:09.788Z,18.30
2018-04-29T23:04:12.280Z,18.20
2018-04-29T23:09:14.776Z,18.30
2018-04-29T23:14:17.277Z,18.20
2018-04-29T23:19:20.728Z,18.10
2018-04-29T23:24:23.204Z,18.40
2018-04-29T23:29:25.679Z,18.20
2018-04-29T23:34:28.172Z,18.30
2018-04-29T23:39:30.684Z,18.10
2018-04-29T23:44:33.165Z,18.30
2018-04-29T23:49:35.662Z,17.90
2018-04-29T23:54:38.140Z,17.90
2018-04-29T23:59:40.647Z,17.70
